sensor_id;sensor_type;location;lat;lon;timestamp;P1;durP1;ratioP1;P2;durP2;ratioP2
18623;SDS011;9441;51.420;7.036;2023-07-29T00:00:26;5.93;;;2.67;;
18623;SDS011;9441;51.420;7.036;2023-07-29T00:01:28;5.28;;;2.85;;
18623;SDS011;9441;51.420;7.036;2023-07-29T00:02:30;12.20;;;3.40;;
18623;SDS011;9441;51.420;7.036;2023-07-29T00:03:32;3.67;;;2.70;;
18623;SDS011;9441;51.420;7.036;2023-07-29T00:04:34;3.92;;;2.92;;
18623;SDS011;9441;51.420;7.036;2023-07-29T00:05:36;5.97;;;2.83;;
18623;SDS011;9441;51.420;7.036;2023-07-29T00:06:37;5.35;;;3.10;;
18623;SDS011;9441;51.420;7.036;2023-07-29T00:07:40;5.80;;;2.80;;
18623;SDS011;9441;51.420;7.036;2023-07-29T00:08:41;3.70;;;3.10;;
18623;SDS011;9441;51.420;7.036;2023-07-29T00:09:43;12.20;;;3.40;;
18623;SDS011;9441;51.420;7.036;2023-07-29T00:10:45;6.50;;;3.20;;
18623;SDS011;9441;51.420;7.036;2023-07-29T00:11:47;5.10;;;3.40;;
18623;SDS011;9441;51.420;7.036;2023-07-29T00:12:48;3.63;;;3.30;;
18623;SDS011;9441;51.420;7.036;2023-07-29T00:13:51;5.13;;;3.50;;
18623;SDS011;9441;51.420;7.036;2023-07-29T00:14:54;3.60;;;3.30;;
18623;SDS011;9441;51.420;7.036;2023-07-29T00:15:56;9.48;;;3.30;;
18623;SDS011;9441;51.420;7.036;2023-07-29T00:16:58;5.75;;;3.50;;
18623;SDS011;9441;51.420;7.036;2023-07-29T00:17:59;5.50;;;3.30;;
18623;SDS011;9441;51.420;7.036;2023-07-29T00:19:02;6.18;;;3.20;;
18623;SDS011;9441;51.420;7.036;2023-07-29T00:20:03;5.90;;;3.25;;
18623;SDS011;9441;51.420;7.036;2023-07-29T00:21:06;6.72;;;3.25;;
18623;SDS011;9441;51.420;7.036;2023-07-29T00:22:08;9.20;;;3.53;;
18623;SDS011;9441;51.420;7.036;2023-07-29T00:23:10;7.03;;;3.53;;
18623;SDS011;9441;51.420;7.036;2023-07-29T00:24:11;3.90;;;3.13;;
18623;SDS011;9441;51.420;7.036;2023-07-29T00:25:14;4.90;;;3.25;;
18623;SDS011;9441;51.420;7.036;2023-07-29T00:26:15;7.43;;;3.53;;
18623;SDS011;9441;51.420;7.036;2023-07-29T00:27:16;4.88;;;3.40;;
18623;SDS011;9441;51.420;7.036;2023-07-29T00:28:18;4.00;;;3.28;;
18623;SDS011;9441;51.420;7.036;2023-07-29T00:29:20;5.07;;;3.30;;
18623;SDS011;9441;51.420;7.036;2023-07-29T00:30:23;4.88;;;3.40;;
18623;SDS011;9441;51.420;7.036;2023-07-29T00:31:25;5.53;;;3.72;;
18623;SDS011;9441;51.420;7.036;2023-07-29T00:32:28;7.28;;;3.13;;
18623;SDS011;9441;51.420;7.036;2023-07-29T00:33:30;5.55;;;3.40;;
18623;SDS011;9441;51.420;7.036;2023-07-29T00:34:31;5.68;;;3.20;;
18623;SDS011;9441;51.420;7.036;2023-07-29T00:35:34;11.60;;;3.47;;
18623;SDS011;9441;51.420;7.036;2023-07-29T00:36:35;6.10;;;3.50;;
18623;SDS011;9441;51.420;7.036;2023-07-29T00:37:37;5.75;;;3.40;;
18623;SDS011;9441;51.420;7.036;2023-07-29T00:38:40;7.45;;;3.45;;
18623;SDS011;9441;51.420;7.036;2023-07-29T00:39:41;7.60;;;3.40;;
18623;SDS011;9441;51.420;7.036;2023-07-29T00:40:44;5.53;;;3.42;;
18623;SDS011;9441;51.420;7.036;2023-07-29T00:41:45;8.73;;;3.67;;
18623;SDS011;9441;51.420;7.036;2023-07-29T00:42:47;6.55;;;3.30;;
18623;SDS011;9441;51.420;7.036;2023-07-29T00:43:48;9.23;;;3.42;;
18623;SDS011;9441;51.420;7.036;2023-07-29T00:44:51;6.40;;;3.38;;
18623;SDS011;9441;51.420;7.036;2023-07-29T00:45:55;6.18;;;3.47;;
18623;SDS011;9441;51.420;7.036;2023-07-29T00:46:58;5.30;;;3.30;;
18623;SDS011;9441;51.420;7.036;2023-07-29T00:48:00;4.10;;;2.88;;
18623;SDS011;9441;51.420;7.036;2023-07-29T00:49:03;4.75;;;3.58;;
18623;SDS011;9441;51.420;7.036;2023-07-29T00:50:05;4.68;;;2.80;;
18623;SDS011;9441;51.420;7.036;2023-07-29T00:51:07;8.13;;;3.40;;
18623;SDS011;9441;51.420;7.036;2023-07-29T00:52:09;4.50;;;3.13;;
18623;SDS011;9441;51.420;7.036;2023-07-29T00:53:12;5.43;;;3.40;;
18623;SDS011;9441;51.420;7.036;2023-07-29T00:54:14;7.10;;;3.50;;
18623;SDS011;9441;51.420;7.036;2023-07-29T00:55:16;8.02;;;3.55;;
18623;SDS011;9441;51.420;7.036;2023-07-29T00:56:19;6.60;;;3.40;;
18623;SDS011;9441;51.420;7.036;2023-07-29T00:57:21;4.18;;;3.20;;
18623;SDS011;9441;51.420;7.036;2023-07-29T00:58:25;10.65;;;3.28;;
18623;SDS011;9441;51.420;7.036;2023-07-29T00:59:26;9.27;;;3.67;;
18623;SDS011;9441;51.420;7.036;2023-07-29T01:00:32;7.22;;;3.42;;
18623;SDS011;9441;51.420;7.036;2023-07-29T01:01:34;6.18;;;3.28;;
18623;SDS011;9441;51.420;7.036;2023-07-29T01:02:37;7.22;;;3.50;;
18623;SDS011;9441;51.420;7.036;2023-07-29T01:03:38;4.13;;;3.50;;
18623;SDS011;9441;51.420;7.036;2023-07-29T01:04:41;6.45;;;3.33;;
18623;SDS011;9441;51.420;7.036;2023-07-29T01:05:45;5.88;;;3.47;;
18623;SDS011;9441;51.420;7.036;2023-07-29T01:06:50;5.25;;;3.20;;
18623;SDS011;9441;51.420;7.036;2023-07-29T01:07:55;7.18;;;3.55;;
18623;SDS011;9441;51.420;7.036;2023-07-29T01:08:59;3.70;;;3.28;;
18623;SDS011;9441;51.420;7.036;2023-07-29T01:10:03;3.55;;;3.22;;
18623;SDS011;9441;51.420;7.036;2023-07-29T01:11:10;4.75;;;3.38;;
18623;SDS011;9441;51.420;7.036;2023-07-29T01:12:16;4.78;;;3.40;;
18623;SDS011;9441;51.420;7.036;2023-07-29T01:13:23;6.10;;;3.35;;
18623;SDS011;9441;51.420;7.036;2023-07-29T01:14:29;5.85;;;3.40;;
18623;SDS011;9441;51.420;7.036;2023-07-29T01:15:36;3.90;;;3.35;;
18623;SDS011;9441;51.420;7.036;2023-07-29T01:16:40;12.43;;;3.60;;
18623;SDS011;9441;51.420;7.036;2023-07-29T01:17:46;5.57;;;3.53;;
18623;SDS011;9441;51.420;7.036;2023-07-29T01:18:47;5.03;;;3.63;;
18623;SDS011;9441;51.420;7.036;2023-07-29T01:19:55;8.82;;;3.70;;
18623;SDS011;9441;51.420;7.036;2023-07-29T01:21:03;6.55;;;3.70;;
18623;SDS011;9441;51.420;7.036;2023-07-29T01:22:05;4.53;;;3.78;;
18623;SDS011;9441;51.420;7.036;2023-07-29T01:23:08;7.47;;;3.67;;
18623;SDS011;9441;51.420;7.036;2023-07-29T01:24:12;7.20;;;3.75;;
18623;SDS011;9441;51.420;7.036;2023-07-29T01:25:14;7.93;;;3.25;;
18623;SDS011;9441;51.420;7.036;2023-07-29T01:26:16;5.07;;;3.55;;
18623;SDS011;9441;51.420;7.036;2023-07-29T01:27:17;3.25;;;2.95;;
18623;SDS011;9441;51.420;7.036;2023-07-29T01:28:19;8.63;;;3.55;;
18623;SDS011;9441;51.420;7.036;2023-07-29T01:29:21;5.85;;;3.70;;
18623;SDS011;9441;51.420;7.036;2023-07-29T01:30:26;7.72;;;3.28;;
18623;SDS011;9441;51.420;7.036;2023-07-29T01:31:31;4.63;;;3.65;;
18623;SDS011;9441;51.420;7.036;2023-07-29T01:32:36;4.85;;;3.50;;
18623;SDS011;9441;51.420;7.036;2023-07-29T01:33:42;5.80;;;3.70;;
18623;SDS011;9441;51.420;7.036;2023-07-29T01:34:45;5.95;;;3.67;;
18623;SDS011;9441;51.420;7.036;2023-07-29T01:35:49;6.20;;;3.67;;
18623;SDS011;9441;51.420;7.036;2023-07-29T01:36:51;4.38;;;3.60;;
18623;SDS011;9441;51.420;7.036;2023-07-29T01:37:59;7.88;;;3.20;;
18623;SDS011;9441;51.420;7.036;2023-07-29T01:39:03;5.22;;;3.10;;
18623;SDS011;9441;51.420;7.036;2023-07-29T01:40:07;4.85;;;3.33;;
18623;SDS011;9441;51.420;7.036;2023-07-29T01:41:09;8.25;;;3.50;;
18623;SDS011;9441;51.420;7.036;2023-07-29T01:42:12;5.45;;;3.58;;
18623;SDS011;9441;51.420;7.036;2023-07-29T01:43:13;7.18;;;3.20;;
18623;SDS011;9441;51.420;7.036;2023-07-29T01:44:15;6.53;;;3.55;;
18623;SDS011;9441;51.420;7.036;2023-07-29T01:45:17;6.35;;;3.25;;
18623;SDS011;9441;51.420;7.036;2023-07-29T01:46:20;8.68;;;3.35;;
18623;SDS011;9441;51.420;7.036;2023-07-29T01:47:22;5.38;;;3.58;;
18623;SDS011;9441;51.420;7.036;2023-07-29T01:48:24;10.85;;;3.85;;
18623;SDS011;9441;51.420;7.036;2023-07-29T01:49:27;10.68;;;4.18;;
18623;SDS011;9441;51.420;7.036;2023-07-29T01:50:30;6.10;;;3.50;;
18623;SDS011;9441;51.420;7.036;2023-07-29T01:51:32;5.65;;;3.08;;
18623;SDS011;9441;51.420;7.036;2023-07-29T01:52:34;8.45;;;3.63;;
18623;SDS011;9441;51.420;7.036;2023-07-29T01:53:36;3.58;;;3.28;;
18623;SDS011;9441;51.420;7.036;2023-07-29T01:54:38;5.35;;;3.28;;
18623;SDS011;9441;51.420;7.036;2023-07-29T01:55:41;8.15;;;3.45;;
18623;SDS011;9441;51.420;7.036;2023-07-29T01:56:44;8.13;;;3.53;;
18623;SDS011;9441;51.420;7.036;2023-07-29T01:57:46;7.13;;;3.72;;
18623;SDS011;9441;51.420;7.036;2023-07-29T01:58:48;7.07;;;3.95;;
18623;SDS011;9441;51.420;7.036;2023-07-29T01:59:50;6.32;;;3.70;;
18623;SDS011;9441;51.420;7.036;2023-07-29T02:00:51;4.70;;;3.30;;
18623;SDS011;9441;51.420;7.036;2023-07-29T02:01:54;6.47;;;3.80;;
18623;SDS011;9441;51.420;7.036;2023-07-29T02:02:55;9.63;;;3.67;;
18623;SDS011;9441;51.420;7.036;2023-07-29T02:03:57;7.45;;;3.65;;
18623;SDS011;9441;51.420;7.036;2023-07-29T02:04:59;5.97;;;3.60;;
18623;SDS011;9441;51.420;7.036;2023-07-29T02:06:01;6.47;;;3.80;;
18623;SDS011;9441;51.420;7.036;2023-07-29T02:07:03;5.80;;;3.47;;
18623;SDS011;9441;51.420;7.036;2023-07-29T02:08:05;5.32;;;3.70;;
18623;SDS011;9441;51.420;7.036;2023-07-29T02:09:07;6.55;;;3.40;;
18623;SDS011;9441;51.420;7.036;2023-07-29T02:10:09;6.78;;;3.33;;
18623;SDS011;9441;51.420;7.036;2023-07-29T02:11:12;7.38;;;3.78;;
18623;SDS011;9441;51.420;7.036;2023-07-29T02:12:14;5.93;;;3.90;;
18623;SDS011;9441;51.420;7.036;2023-07-29T02:13:16;5.47;;;3.70;;
18623;SDS011;9441;51.420;7.036;2023-07-29T02:14:18;4.13;;;3.42;;
18623;SDS011;9441;51.420;7.036;2023-07-29T02:15:19;5.68;;;3.50;;
18623;SDS011;9441;51.420;7.036;2023-07-29T02:16:21;3.97;;;3.40;;
18623;SDS011;9441;51.420;7.036;2023-07-29T02:17:23;5.10;;;3.67;;
18623;SDS011;9441;51.420;7.036;2023-07-29T02:18:26;8.27;;;3.50;;
18623;SDS011;9441;51.420;7.036;2023-07-29T02:19:28;7.20;;;3.45;;
18623;SDS011;9441;51.420;7.036;2023-07-29T02:20:30;5.78;;;3.70;;
18623;SDS011;9441;51.420;7.036;2023-07-29T02:21:31;10.45;;;4.10;;
18623;SDS011;9441;51.420;7.036;2023-07-29T02:22:34;5.75;;;3.13;;
18623;SDS011;9441;51.420;7.036;2023-07-29T02:23:35;5.90;;;3.90;;
18623;SDS011;9441;51.420;7.036;2023-07-29T02:24:38;8.77;;;3.78;;
18623;SDS011;9441;51.420;7.036;2023-07-29T02:25:39;7.05;;;3.58;;
18623;SDS011;9441;51.420;7.036;2023-07-29T02:26:43;8.95;;;3.33;;
18623;SDS011;9441;51.420;7.036;2023-07-29T02:27:44;5.80;;;3.53;;
18623;SDS011;9441;51.420;7.036;2023-07-29T02:28:46;7.05;;;3.85;;
18623;SDS011;9441;51.420;7.036;2023-07-29T02:29:48;6.07;;;3.47;;
18623;SDS011;9441;51.420;7.036;2023-07-29T02:31:08;11.82;;;3.63;;
18623;SDS011;9441;51.420;7.036;2023-07-29T02:32:10;5.47;;;3.60;;
18623;SDS011;9441;51.420;7.036;2023-07-29T02:33:13;3.90;;;3.45;;
18623;SDS011;9441;51.420;7.036;2023-07-29T02:34:14;3.75;;;3.25;;
18623;SDS011;9441;51.420;7.036;2023-07-29T02:35:16;5.32;;;3.60;;
18623;SDS011;9441;51.420;7.036;2023-07-29T02:36:18;7.85;;;3.88;;
18623;SDS011;9441;51.420;7.036;2023-07-29T02:37:19;7.95;;;4.35;;
18623;SDS011;9441;51.420;7.036;2023-07-29T02:38:22;7.70;;;4.10;;
18623;SDS011;9441;51.420;7.036;2023-07-29T02:39:23;6.60;;;4.30;;
18623;SDS011;9441;51.420;7.036;2023-07-29T02:40:24;5.32;;;3.97;;
18623;SDS011;9441;51.420;7.036;2023-07-29T02:41:28;8.80;;;4.22;;
18623;SDS011;9441;51.420;7.036;2023-07-29T02:42:31;8.90;;;4.45;;
18623;SDS011;9441;51.420;7.036;2023-07-29T02:43:33;10.45;;;4.38;;
18623;SDS011;9441;51.420;7.036;2023-07-29T02:44:34;6.03;;;4.18;;
18623;SDS011;9441;51.420;7.036;2023-07-29T02:45:36;6.40;;;4.32;;
18623;SDS011;9441;51.420;7.036;2023-07-29T02:46:38;10.50;;;4.60;;
18623;SDS011;9441;51.420;7.036;2023-07-29T02:47:40;5.80;;;4.47;;
18623;SDS011;9441;51.420;7.036;2023-07-29T02:48:41;5.65;;;4.20;;
18623;SDS011;9441;51.420;7.036;2023-07-29T02:49:44;6.13;;;4.45;;
18623;SDS011;9441;51.420;7.036;2023-07-29T02:50:45;5.03;;;4.43;;
18623;SDS011;9441;51.420;7.036;2023-07-29T02:51:47;5.35;;;4.00;;
18623;SDS011;9441;51.420;7.036;2023-07-29T02:52:49;4.30;;;3.78;;
18623;SDS011;9441;51.420;7.036;2023-07-29T02:53:52;5.65;;;4.18;;
18623;SDS011;9441;51.420;7.036;2023-07-29T02:54:54;12.93;;;4.65;;
18623;SDS011;9441;51.420;7.036;2023-07-29T02:55:55;8.32;;;4.28;;
18623;SDS011;9441;51.420;7.036;2023-07-29T02:56:57;6.72;;;4.53;;
18623;SDS011;9441;51.420;7.036;2023-07-29T02:58:00;10.75;;;4.55;;
18623;SDS011;9441;51.420;7.036;2023-07-29T02:59:02;5.25;;;3.97;;
18623;SDS011;9441;51.420;7.036;2023-07-29T03:00:05;7.30;;;4.38;;
18623;SDS011;9441;51.420;7.036;2023-07-29T03:01:08;9.23;;;4.50;;
18623;SDS011;9441;51.420;7.036;2023-07-29T03:02:10;7.30;;;5.15;;
18623;SDS011;9441;51.420;7.036;2023-07-29T03:03:13;7.43;;;4.25;;
18623;SDS011;9441;51.420;7.036;2023-07-29T03:04:14;5.20;;;4.65;;
18623;SDS011;9441;51.420;7.036;2023-07-29T03:05:16;6.88;;;4.72;;
18623;SDS011;9441;51.420;7.036;2023-07-29T03:06:18;8.75;;;4.88;;
18623;SDS011;9441;51.420;7.036;2023-07-29T03:07:21;6.88;;;4.85;;
18623;SDS011;9441;51.420;7.036;2023-07-29T03:08:22;5.63;;;4.90;;
18623;SDS011;9441;51.420;7.036;2023-07-29T03:09:24;8.30;;;4.82;;
18623;SDS011;9441;51.420;7.036;2023-07-29T03:10:26;8.82;;;5.15;;
18623;SDS011;9441;51.420;7.036;2023-07-29T03:11:27;8.80;;;5.25;;
18623;SDS011;9441;51.420;7.036;2023-07-29T03:12:29;6.97;;;5.28;;
18623;SDS011;9441;51.420;7.036;2023-07-29T03:13:32;9.50;;;5.10;;
18623;SDS011;9441;51.420;7.036;2023-07-29T03:14:34;7.03;;;5.10;;
18623;SDS011;9441;51.420;7.036;2023-07-29T03:15:36;9.85;;;5.40;;
18623;SDS011;9441;51.420;7.036;2023-07-29T03:16:38;8.25;;;5.20;;
18623;SDS011;9441;51.420;7.036;2023-07-29T03:17:40;9.88;;;5.40;;
18623;SDS011;9441;51.420;7.036;2023-07-29T03:18:42;9.43;;;4.90;;
18623;SDS011;9441;51.420;7.036;2023-07-29T03:19:43;7.68;;;5.00;;
18623;SDS011;9441;51.420;7.036;2023-07-29T03:20:45;5.82;;;4.80;;
18623;SDS011;9441;51.420;7.036;2023-07-29T03:21:47;5.65;;;4.78;;
18623;SDS011;9441;51.420;7.036;2023-07-29T03:22:49;9.63;;;4.53;;
18623;SDS011;9441;51.420;7.036;2023-07-29T03:23:51;7.35;;;5.03;;
18623;SDS011;9441;51.420;7.036;2023-07-29T03:24:53;6.90;;;4.70;;
18623;SDS011;9441;51.420;7.036;2023-07-29T03:25:55;7.82;;;4.72;;
18623;SDS011;9441;51.420;7.036;2023-07-29T03:26:58;6.15;;;4.90;;
18623;SDS011;9441;51.420;7.036;2023-07-29T03:28:00;5.78;;;4.90;;
18623;SDS011;9441;51.420;7.036;2023-07-29T03:29:03;7.90;;;4.40;;
18623;SDS011;9441;51.420;7.036;2023-07-29T03:30:05;5.93;;;4.70;;
18623;SDS011;9441;51.420;7.036;2023-07-29T03:31:08;11.15;;;5.28;;
18623;SDS011;9441;51.420;7.036;2023-07-29T03:32:10;5.70;;;5.10;;
18623;SDS011;9441;51.420;7.036;2023-07-29T03:33:13;5.53;;;4.80;;
18623;SDS011;9441;51.420;7.036;2023-07-29T03:34:14;6.18;;;5.03;;
18623;SDS011;9441;51.420;7.036;2023-07-29T03:35:20;6.57;;;5.55;;
18623;SDS011;9441;51.420;7.036;2023-07-29T03:36:21;10.95;;;5.15;;
18623;SDS011;9441;51.420;7.036;2023-07-29T03:37:25;6.97;;;5.47;;
18623;SDS011;9441;51.420;7.036;2023-07-29T03:38:28;7.97;;;4.82;;
18623;SDS011;9441;51.420;7.036;2023-07-29T03:39:29;5.60;;;5.03;;
18623;SDS011;9441;51.420;7.036;2023-07-29T03:40:32;13.77;;;4.95;;
18623;SDS011;9441;51.420;7.036;2023-07-29T03:41:33;10.32;;;5.70;;
18623;SDS011;9441;51.420;7.036;2023-07-29T03:42:35;6.32;;;5.07;;
18623;SDS011;9441;51.420;7.036;2023-07-29T03:43:37;10.75;;;5.82;;
18623;SDS011;9441;51.420;7.036;2023-07-29T03:44:40;10.40;;;5.15;;
18623;SDS011;9441;51.420;7.036;2023-07-29T03:45:42;9.32;;;5.55;;
18623;SDS011;9441;51.420;7.036;2023-07-29T03:46:44;9.30;;;5.30;;
18623;SDS011;9441;51.420;7.036;2023-07-29T03:47:45;9.73;;;5.10;;
18623;SDS011;9441;51.420;7.036;2023-07-29T03:48:48;7.20;;;5.70;;
18623;SDS011;9441;51.420;7.036;2023-07-29T03:49:49;10.70;;;5.70;;
18623;SDS011;9441;51.420;7.036;2023-07-29T03:50:54;7.50;;;5.35;;
18623;SDS011;9441;51.420;7.036;2023-07-29T03:51:56;12.15;;;5.35;;
18623;SDS011;9441;51.420;7.036;2023-07-29T03:52:58;7.78;;;5.55;;
18623;SDS011;9441;51.420;7.036;2023-07-29T03:53:59;9.73;;;5.30;;
18623;SDS011;9441;51.420;7.036;2023-07-29T03:55:02;8.80;;;5.55;;
18623;SDS011;9441;51.420;7.036;2023-07-29T03:56:04;9.00;;;5.93;;
18623;SDS011;9441;51.420;7.036;2023-07-29T03:57:06;9.25;;;6.10;;
18623;SDS011;9441;51.420;7.036;2023-07-29T03:58:07;10.07;;;6.32;;
18623;SDS011;9441;51.420;7.036;2023-07-29T03:59:10;8.90;;;6.53;;
18623;SDS011;9441;51.420;7.036;2023-07-29T04:00:13;9.80;;;6.25;;
18623;SDS011;9441;51.420;7.036;2023-07-29T04:01:22;10.65;;;6.28;;
18623;SDS011;9441;51.420;7.036;2023-07-29T04:02:23;13.70;;;6.65;;
18623;SDS011;9441;51.420;7.036;2023-07-29T04:03:25;10.13;;;7.05;;
18623;SDS011;9441;51.420;7.036;2023-07-29T04:04:28;10.68;;;6.50;;
18623;SDS011;9441;51.420;7.036;2023-07-29T04:05:30;15.52;;;7.40;;
18623;SDS011;9441;51.420;7.036;2023-07-29T04:06:32;12.02;;;6.70;;
18623;SDS011;9441;51.420;7.036;2023-07-29T04:07:34;12.75;;;7.15;;
18623;SDS011;9441;51.420;7.036;2023-07-29T04:08:36;9.35;;;6.32;;
18623;SDS011;9441;51.420;7.036;2023-07-29T04:09:38;10.27;;;6.32;;
18623;SDS011;9441;51.420;7.036;2023-07-29T04:10:39;11.15;;;6.75;;
18623;SDS011;9441;51.420;7.036;2023-07-29T04:11:42;12.57;;;6.90;;
18623;SDS011;9441;51.420;7.036;2023-07-29T04:12:43;12.32;;;7.22;;
18623;SDS011;9441;51.420;7.036;2023-07-29T04:13:45;7.25;;;6.03;;
18623;SDS011;9441;51.420;7.036;2023-07-29T04:14:46;10.68;;;6.10;;
18623;SDS011;9441;51.420;7.036;2023-07-29T04:15:50;10.32;;;6.82;;
18623;SDS011;9441;51.420;7.036;2023-07-29T04:16:51;10.82;;;6.68;;
18623;SDS011;9441;51.420;7.036;2023-07-29T04:17:54;10.70;;;6.43;;
18623;SDS011;9441;51.420;7.036;2023-07-29T04:18:55;9.77;;;6.57;;
18623;SDS011;9441;51.420;7.036;2023-07-29T04:19:57;10.98;;;6.95;;
18623;SDS011;9441;51.420;7.036;2023-07-29T04:21:04;12.10;;;5.97;;
18623;SDS011;9441;51.420;7.036;2023-07-29T04:22:07;11.68;;;6.43;;
18623;SDS011;9441;51.420;7.036;2023-07-29T04:23:08;12.35;;;6.70;;
18623;SDS011;9441;51.420;7.036;2023-07-29T04:24:10;10.85;;;6.72;;
18623;SDS011;9441;51.420;7.036;2023-07-29T04:25:12;8.40;;;6.32;;
18623;SDS011;9441;51.420;7.036;2023-07-29T04:26:15;14.32;;;6.65;;
18623;SDS011;9441;51.420;7.036;2023-07-29T04:27:16;12.57;;;6.43;;
18623;SDS011;9441;51.420;7.036;2023-07-29T04:28:19;12.82;;;6.05;;
18623;SDS011;9441;51.420;7.036;2023-07-29T04:29:21;14.70;;;6.63;;
18623;SDS011;9441;51.420;7.036;2023-07-29T04:30:23;16.98;;;7.65;;
18623;SDS011;9441;51.420;7.036;2023-07-29T04:31:26;14.15;;;8.02;;
18623;SDS011;9441;51.420;7.036;2023-07-29T04:32:28;15.93;;;8.20;;
18623;SDS011;9441;51.420;7.036;2023-07-29T04:33:30;15.05;;;8.75;;
18623;SDS011;9441;51.420;7.036;2023-07-29T04:34:32;15.63;;;8.32;;
18623;SDS011;9441;51.420;7.036;2023-07-29T04:35:34;12.43;;;8.38;;
18623;SDS011;9441;51.420;7.036;2023-07-29T04:36:36;15.82;;;8.07;;
18623;SDS011;9441;51.420;7.036;2023-07-29T04:37:37;16.05;;;9.10;;
18623;SDS011;9441;51.420;7.036;2023-07-29T04:38:39;16.35;;;8.32;;
18623;SDS011;9441;51.420;7.036;2023-07-29T04:39:41;14.05;;;8.48;;
18623;SDS011;9441;51.420;7.036;2023-07-29T04:40:43;17.17;;;8.60;;
18623;SDS011;9441;51.420;7.036;2023-07-29T04:41:45;15.77;;;8.77;;
18623;SDS011;9441;51.420;7.036;2023-07-29T04:42:48;15.02;;;8.80;;
18623;SDS011;9441;51.420;7.036;2023-07-29T04:43:50;18.83;;;9.27;;
18623;SDS011;9441;51.420;7.036;2023-07-29T04:44:52;11.73;;;7.82;;
18623;SDS011;9441;51.420;7.036;2023-07-29T04:45:54;14.18;;;9.18;;
18623;SDS011;9441;51.420;7.036;2023-07-29T04:46:57;14.50;;;9.18;;
18623;SDS011;9441;51.420;7.036;2023-07-29T04:47:59;19.15;;;9.90;;
18623;SDS011;9441;51.420;7.036;2023-07-29T04:49:01;14.93;;;9.45;;
18623;SDS011;9441;51.420;7.036;2023-07-29T04:50:04;15.57;;;9.95;;
18623;SDS011;9441;51.420;7.036;2023-07-29T04:51:06;15.82;;;10.27;;
18623;SDS011;9441;51.420;7.036;2023-07-29T04:52:09;18.65;;;10.20;;
18623;SDS011;9441;51.420;7.036;2023-07-29T04:53:10;21.85;;;11.77;;
18623;SDS011;9441;51.420;7.036;2023-07-29T04:54:12;21.33;;;11.60;;
18623;SDS011;9441;51.420;7.036;2023-07-29T04:55:14;16.50;;;11.98;;
18623;SDS011;9441;51.420;7.036;2023-07-29T04:56:16;21.88;;;12.18;;
18623;SDS011;9441;51.420;7.036;2023-07-29T04:57:19;21.20;;;12.85;;
18623;SDS011;9441;51.420;7.036;2023-07-29T04:58:21;23.42;;;13.35;;
18623;SDS011;9441;51.420;7.036;2023-07-29T04:59:23;21.88;;;13.70;;
18623;SDS011;9441;51.420;7.036;2023-07-29T05:00:25;27.00;;;14.40;;
18623;SDS011;9441;51.420;7.036;2023-07-29T05:01:27;27.92;;;14.18;;
18623;SDS011;9441;51.420;7.036;2023-07-29T05:02:30;24.95;;;14.45;;
18623;SDS011;9441;51.420;7.036;2023-07-29T05:03:32;27.20;;;15.55;;
18623;SDS011;9441;51.420;7.036;2023-07-29T05:04:35;27.88;;;15.48;;
18623;SDS011;9441;51.420;7.036;2023-07-29T05:05:37;31.48;;;16.52;;
18623;SDS011;9441;51.420;7.036;2023-07-29T05:06:40;30.50;;;16.58;;
18623;SDS011;9441;51.420;7.036;2023-07-29T05:07:41;31.08;;;17.58;;
18623;SDS011;9441;51.420;7.036;2023-07-29T05:08:43;34.10;;;17.40;;
18623;SDS011;9441;51.420;7.036;2023-07-29T05:09:45;34.28;;;16.67;;
18623;SDS011;9441;51.420;7.036;2023-07-29T05:10:48;31.40;;;17.42;;
18623;SDS011;9441;51.420;7.036;2023-07-29T05:11:50;32.17;;;16.98;;
18623;SDS011;9441;51.420;7.036;2023-07-29T05:12:52;28.15;;;16.08;;
18623;SDS011;9441;51.420;7.036;2023-07-29T05:13:53;26.73;;;16.27;;
18623;SDS011;9441;51.420;7.036;2023-07-29T05:14:56;28.13;;;15.80;;
18623;SDS011;9441;51.420;7.036;2023-07-29T05:15:57;30.17;;;16.38;;
18623;SDS011;9441;51.420;7.036;2023-07-29T05:16:59;31.63;;;17.30;;
18623;SDS011;9441;51.420;7.036;2023-07-29T05:18:02;29.95;;;17.20;;
18623;SDS011;9441;51.420;7.036;2023-07-29T05:19:05;31.95;;;16.33;;
18623;SDS011;9441;51.420;7.036;2023-07-29T05:20:07;30.55;;;16.80;;
18623;SDS011;9441;51.420;7.036;2023-07-29T05:21:09;30.63;;;17.05;;
18623;SDS011;9441;51.420;7.036;2023-07-29T05:22:14;36.17;;;16.40;;
18623;SDS011;9441;51.420;7.036;2023-07-29T05:23:16;29.80;;;16.17;;
18623;SDS011;9441;51.420;7.036;2023-07-29T05:24:18;33.55;;;17.45;;
18623;SDS011;9441;51.420;7.036;2023-07-29T05:25:20;33.30;;;19.30;;
18623;SDS011;9441;51.420;7.036;2023-07-29T05:26:22;38.45;;;18.10;;
18623;SDS011;9441;51.420;7.036;2023-07-29T05:27:24;36.13;;;19.23;;
18623;SDS011;9441;51.420;7.036;2023-07-29T05:28:25;36.63;;;18.10;;
18623;SDS011;9441;51.420;7.036;2023-07-29T05:29:28;34.85;;;19.00;;
18623;SDS011;9441;51.420;7.036;2023-07-29T05:30:29;32.88;;;18.48;;
18623;SDS011;9441;51.420;7.036;2023-07-29T05:31:31;33.90;;;19.00;;
18623;SDS011;9441;51.420;7.036;2023-07-29T05:32:34;35.25;;;18.77;;
18623;SDS011;9441;51.420;7.036;2023-07-29T05:33:36;34.58;;;18.00;;
18623;SDS011;9441;51.420;7.036;2023-07-29T05:34:40;30.52;;;17.27;;
18623;SDS011;9441;51.420;7.036;2023-07-29T05:35:41;34.72;;;17.58;;
18623;SDS011;9441;51.420;7.036;2023-07-29T05:36:44;34.30;;;17.95;;
18623;SDS011;9441;51.420;7.036;2023-07-29T05:37:45;29.52;;;17.30;;
18623;SDS011;9441;51.420;7.036;2023-07-29T05:38:47;32.65;;;16.63;;
18623;SDS011;9441;51.420;7.036;2023-07-29T05:39:49;27.52;;;15.60;;
18623;SDS011;9441;51.420;7.036;2023-07-29T05:40:51;30.50;;;16.25;;
18623;SDS011;9441;51.420;7.036;2023-07-29T05:41:52;26.77;;;15.55;;
18623;SDS011;9441;51.420;7.036;2023-07-29T05:42:55;34.83;;;18.27;;
18623;SDS011;9441;51.420;7.036;2023-07-29T05:43:56;34.47;;;16.83;;
18623;SDS011;9441;51.420;7.036;2023-07-29T05:44:58;29.42;;;16.83;;
18623;SDS011;9441;51.420;7.036;2023-07-29T05:46:00;33.28;;;17.02;;
18623;SDS011;9441;51.420;7.036;2023-07-29T05:47:02;34.95;;;17.50;;
18623;SDS011;9441;51.420;7.036;2023-07-29T05:48:04;34.13;;;16.77;;
18623;SDS011;9441;51.420;7.036;2023-07-29T05:49:08;32.95;;;17.52;;
18623;SDS011;9441;51.420;7.036;2023-07-29T05:50:09;30.45;;;16.65;;
18623;SDS011;9441;51.420;7.036;2023-07-29T05:51:11;31.88;;;16.42;;
18623;SDS011;9441;51.420;7.036;2023-07-29T05:52:13;25.90;;;16.20;;
18623;SDS011;9441;51.420;7.036;2023-07-29T05:53:15;29.05;;;15.82;;
18623;SDS011;9441;51.420;7.036;2023-07-29T05:54:17;26.92;;;14.07;;
18623;SDS011;9441;51.420;7.036;2023-07-29T05:55:19;22.48;;;13.38;;
18623;SDS011;9441;51.420;7.036;2023-07-29T05:56:21;27.15;;;13.52;;
18623;SDS011;9441;51.420;7.036;2023-07-29T05:57:22;22.20;;;12.75;;
18623;SDS011;9441;51.420;7.036;2023-07-29T05:58:25;21.88;;;12.10;;
18623;SDS011;9441;51.420;7.036;2023-07-29T05:59:27;25.17;;;12.20;;
18623;SDS011;9441;51.420;7.036;2023-07-29T06:00:32;20.45;;;11.80;;
18623;SDS011;9441;51.420;7.036;2023-07-29T06:01:34;15.10;;;8.93;;
18623;SDS011;9441;51.420;7.036;2023-07-29T06:02:37;18.05;;;10.30;;
18623;SDS011;9441;51.420;7.036;2023-07-29T06:03:38;17.25;;;10.63;;
18623;SDS011;9441;51.420;7.036;2023-07-29T06:04:42;21.98;;;9.88;;
18623;SDS011;9441;51.420;7.036;2023-07-29T06:05:43;17.58;;;10.30;;
18623;SDS011;9441;51.420;7.036;2023-07-29T06:06:45;15.77;;;9.18;;
18623;SDS011;9441;51.420;7.036;2023-07-29T06:07:47;19.60;;;9.43;;
18623;SDS011;9441;51.420;7.036;2023-07-29T06:08:49;17.48;;;8.80;;
18623;SDS011;9441;51.420;7.036;2023-07-29T06:09:51;16.02;;;9.00;;
18623;SDS011;9441;51.420;7.036;2023-07-29T06:10:54;15.75;;;8.52;;
18623;SDS011;9441;51.420;7.036;2023-07-29T06:11:55;17.13;;;8.35;;
18623;SDS011;9441;51.420;7.036;2023-07-29T06:12:57;14.32;;;7.82;;
18623;SDS011;9441;51.420;7.036;2023-07-29T06:13:59;19.23;;;8.57;;
18623;SDS011;9441;51.420;7.036;2023-07-29T06:15:01;14.48;;;8.60;;
18623;SDS011;9441;51.420;7.036;2023-07-29T06:16:03;13.98;;;8.07;;
18623;SDS011;9441;51.420;7.036;2023-07-29T06:17:05;15.75;;;8.07;;
18623;SDS011;9441;51.420;7.036;2023-07-29T06:18:07;13.30;;;8.00;;